Time;durP1;ratioP1;P1;durP2;ratioP2;P2;SDS_P1;SDS_P2;PMS_P1;PMS_P2;Temp;Humidity;BMP_temperature;BMP_pressure;BME280_temperature;BME280_humidity;BME280_pressure;Samples;Min_cycle;Max_cycle;Signal;HPM_P1;HPM_P2
2022/03/15 00:01:13;;;;;;;13.18;7.18;;;7.40;99.90;;;;;;5074618;28;20033;-70
2022/03/15 00:03:38;;;;;;;12.50;7.45;;;7.40;99.90;;;;;;5074785;28;20020;-70
2022/03/15 00:06:04;;;;;;;19.20;7.60;;;7.40;99.90;;;;;;5059639;28;20566;-69
2022/03/15 00:08:31;;;;;;;11.20;6.88;;;7.40;99.90;;;;;;5054443;28;20021;-70
2022/03/15 00:11:02;;;;;;;15.80;6.97;;;7.40;99.90;;;;;;5054690;28;20025;-70
2022/03/15 00:13:30;;;;;;;15.75;7.47;;;7.40;99.90;;;;;;5054656;28;20029;-70
2022/03/15 00:15:58;;;;;;;12.73;6.75;;;7.40;99.90;;;;;;5054316;28;20099;-69
2022/03/15 00:18:24;;;;;;;14.00;7.10;;;7.40;99.90;;;;;;5054293;28;20021;-70
2022/03/15 00:20:50;;;;;;;12.55;6.20;;;7.40;99.90;;;;;;5054508;28;20036;-70
2022/03/15 00:23:15;;;;;;;11.95;6.55;;;7.30;99.90;;;;;;5054360;28;20029;-70
2022/03/15 00:25:42;;;;;;;14.13;7.03;;;7.20;99.90;;;;;;5054424;28;20060;-70
2022/03/15 00:28:08;;;;;;;11.85;6.55;;;7.20;99.90;;;;;;5036200;28;20397;-69
2022/03/15 00:30:34;;;;;;;12.63;6.28;;;7.20;99.90;;;;;;5054058;28;20031;-70
2022/03/15 00:33:00;;;;;;;14.23;7.18;;;7.10;99.90;;;;;;5054156;28;20082;-69
2022/03/15 00:35:26;;;;;;;12.48;6.60;;;7.10;99.90;;;;;;5053946;28;20417;-70
2022/03/15 00:37:55;;;;;;;12.90;6.53;;;7.10;99.90;;;;;;5053915;28;20082;-71
2022/03/15 00:40:23;;;;;;;12.80;6.50;;;7.20;99.90;;;;;;5054143;28;20103;-69
2022/03/15 00:42:53;;;;;;;15.13;7.57;;;7.20;99.90;;;;;;5053727;28;20500;-70
2022/03/15 00:45:22;;;;;;;17.95;8.30;;;7.20;99.90;;;;;;5053794;28;20028;-70
2022/03/15 00:47:52;;;;;;;15.70;6.90;;;7.20;99.90;;;;;;5053817;28;20108;-70
2022/03/15 00:50:19;;;;;;;15.57;6.82;;;7.20;99.90;;;;;;5053769;28;20017;-69
2022/03/15 00:52:44;;;;;;;11.35;6.80;;;7.20;99.90;;;;;;5053651;28;20493;-70
2022/03/15 00:55:11;;;;;;;13.27;7.32;;;7.20;99.90;;;;;;5053845;28;20056;-69
2022/03/15 00:57:36;;;;;;;12.45;6.22;;;7.10;99.90;;;;;;5053561;28;20024;-69
2022/03/15 01:00:07;;;;;;;12.25;5.38;;;7.10;99.90;;;;;;5053550;28;20032;-70
2022/03/15 01:02:33;;;;;;;10.23;5.63;;;7.10;99.90;;;;;;5054018;28;20055;-70
2022/03/15 01:05:00;;;;;;;11.50;5.90;;;7.10;99.90;;;;;;5053265;28;20497;-69
2022/03/15 01:07:26;;;;;;;10.07;5.07;;;7.10;99.90;;;;;;5053700;28;20021;-69
2022/03/15 01:09:51;;;;;;;10.80;5.57;;;7.10;99.90;;;;;;5053668;28;20021;-70
2022/03/15 01:12:17;;;;;;;10.82;6.00;;;7.10;99.90;;;;;;5053374;28;20477;-69
2022/03/15 01:14:43;;;;;;;11.60;6.30;;;7.10;99.90;;;;;;5053346;28;20491;-69
2022/03/15 01:17:09;;;;;;;11.80;6.65;;;7.10;99.90;;;;;;5053295;28;20025;-70
2022/03/15 01:19:34;;;;;;;10.07;6.30;;;7.10;99.90;;;;;;5053287;28;20604;-69
2022/03/15 01:22:01;;;;;;;12.07;6.43;;;7.10;99.90;;;;;;5053197;28;20116;-70
2022/03/15 01:24:27;;;;;;;13.40;7.25;;;7.10;99.90;;;;;;5053468;28;20021;-70
2022/03/15 01:26:54;;;;;;;12.35;6.55;;;7.10;99.90;;;;;;5053456;28;20024;-69
2022/03/15 01:29:21;;;;;;;9.60;5.32;;;7.10;99.90;;;;;;5053472;28;20021;-70
2022/03/15 01:31:49;;;;;;;10.57;5.22;;;7.20;99.90;;;;;;5053122;28;20025;-69
2022/03/15 01:34:15;;;;;;;13.30;6.03;;;7.20;99.90;;;;;;5053125;28;20017;-70
2022/03/15 01:36:41;;;;;;;11.27;5.78;;;7.20;99.90;;;;;;5053142;28;20028;-70
2022/03/15 01:39:07;;;;;;;10.43;6.03;;;7.30;99.90;;;;;;5053062;28;20099;-69
2022/03/15 01:41:39;;;;;;;10.55;6.03;;;7.40;99.90;;;;;;5053046;28;20101;-69
2022/03/15 01:44:14;;;;;;;10.23;5.72;;;7.50;99.90;;;;;;5053355;28;20091;-71
2022/03/15 01:46:40;;;;;;;11.32;5.30;;;7.60;99.90;;;;;;5057646;28;20017;-70
2022/03/15 01:49:05;;;;;;;10.02;5.15;;;7.60;99.90;;;;;;5057138;28;20028;-69
2022/03/15 01:51:31;;;;;;;8.68;4.38;;;7.70;99.90;;;;;;5057068;28;20021;-70
2022/03/15 01:53:57;;;;;;;10.43;4.55;;;7.90;99.90;;;;;;5056997;28;20103;-70
2022/03/15 01:56:23;;;;;;;8.82;4.40;;;8.10;99.90;;;;;;5039001;28;20035;-70
2022/03/15 01:58:49;;;;;;;8.75;4.68;;;8.20;99.90;;;;;;5056909;28;20374;-70
2022/03/15 02:01:15;;;;;;;11.35;4.93;;;8.20;99.90;;;;;;5056889;28;20119;-70
2022/03/15 02:03:41;;;;;;;9.73;4.38;;;8.20;99.90;;;;;;5056727;28;20036;-70
2022/03/15 02:06:09;;;;;;;12.43;4.75;;;8.30;99.90;;;;;;5056757;28;20124;-70
2022/03/15 02:08:35;;;;;;;7.88;4.00;;;8.30;99.90;;;;;;5057033;28;20547;-70
2022/03/15 02:11:01;;;;;;;12.38;4.40;;;8.40;99.90;;;;;;5056701;28;20509;-70
2022/03/15 02:13:28;;;;;;;8.93;4.22;;;8.50;99.90;;;;;;5056660;28;20035;-69
2022/03/15 02:15:54;;;;;;;9.65;4.45;;;8.60;99.90;;;;;;5056630;28;20029;-69
2022/03/15 02:18:23;;;;;;;9.07;4.15;;;8.60;99.90;;;;;;5056848;28;20029;-70
2022/03/15 02:20:49;;;;;;;9.15;4.07;;;8.60;99.90;;;;;;5056516;28;20048;-70
2022/03/15 02:23:14;;;;;;;9.48;4.18;;;8.70;99.90;;;;;;5056425;28;20472;-70
2022/03/15 02:25:41;;;;;;;8.63;4.40;;;8.60;99.90;;;;;;5056412;28;20025;-69
2022/03/15 02:28:07;;;;;;;9.40;3.92;;;8.60;99.90;;;;;;5056399;28;20025;-69
2022/03/15 02:30:33;;;;;;;11.52;4.25;;;8.60;99.90;;;;;;5056881;28;20024;-69
2022/03/15 02:32:58;;;;;;;8.48;4.20;;;8.50;99.90;;;;;;5056281;28;20108;-70
2022/03/15 02:35:24;;;;;;;9.00;4.53;;;8.50;99.90;;;;;;5056259;28;20106;-71
2022/03/15 02:37:50;;;;;;;12.52;4.30;;;8.50;99.90;;;;;;5056205;28;20040;-70
2022/03/15 02:40:15;;;;;;;11.90;4.43;;;8.40;99.90;;;;;;5038531;28;20099;-69
2022/03/15 02:42:41;;;;;;;9.90;4.18;;;8.40;99.90;;;;;;5056032;28;20025;-70
2022/03/15 02:45:07;;;;;;;12.55;5.00;;;8.40;99.90;;;;;;5056315;28;20031;-69
2022/03/15 02:47:33;;;;;;;10.30;4.55;;;8.50;99.90;;;;;;5056087;28;20017;-70
2022/03/15 02:49:58;;;;;;;10.27;4.20;;;8.50;99.90;;;;;;5056310;28;20485;-69
2022/03/15 02:52:25;;;;;;;9.25;5.00;;;8.50;99.90;;;;;;5056243;28;20021;-69
2022/03/15 02:54:51;;;;;;;10.77;4.20;;;8.60;99.90;;;;;;5056072;28;20463;-70
2022/03/15 02:57:20;;;;;;;7.68;4.15;;;8.70;99.90;;;;;;5054478;28;20033;-69
2022/03/15 02:59:46;;;;;;;13.77;5.30;;;8.70;99.90;;;;;;5055793;28;20021;-70
2022/03/15 03:02:12;;;;;;;10.43;4.10;;;8.80;99.90;;;;;;5055759;28;20032;-69
2022/03/15 03:04:38;;;;;;;11.23;4.97;;;8.90;99.90;;;;;;5055766;28;20049;-69
2022/03/15 03:07:03;;;;;;;12.50;4.70;;;8.90;99.90;;;;;;5055990;28;20077;-69
2022/03/15 03:09:30;;;;;;;10.70;4.68;;;8.90;99.90;;;;;;5055886;28;20020;-70
2022/03/15 03:11:57;;;;;;;11.02;4.40;;;8.90;99.90;;;;;;5055577;28;20057;-70
2022/03/15 03:14:24;;;;;;;10.05;4.43;;;8.80;99.90;;;;;;5037713;28;20086;-68
2022/03/15 03:16:50;;;;;;;7.78;3.85;;;8.90;99.90;;;;;;5055486;28;20025;-70
2022/03/15 03:19:16;;;;;;;7.60;3.83;;;8.80;99.90;;;;;;5055462;28;20021;-70
2022/03/15 03:21:42;;;;;;;11.63;4.78;;;8.80;99.90;;;;;;5055293;28;20103;-69
2022/03/15 03:24:09;;;;;;;9.55;4.15;;;8.80;99.90;;;;;;5055609;28;20017;-69
2022/03/15 03:26:37;;;;;;;7.63;4.60;;;8.80;99.90;;;;;;5055288;28;20104;-69
2022/03/15 03:29:10;;;;;;;7.68;4.15;;;8.70;99.90;;;;;;5055574;28;20029;-70
2022/03/15 03:31:37;;;;;;;7.55;4.78;;;8.60;99.90;;;;;;5055247;28;20025;-70
2022/03/15 03:34:04;;;;;;;10.45;4.35;;;8.60;99.90;;;;;;5055216;28;20071;-70
2022/03/15 03:36:36;;;;;;;9.38;4.45;;;8.60;99.90;;;;;;5055149;28;20082;-69
2022/03/15 03:39:04;;;;;;;13.23;4.50;;;8.50;99.90;;;;;;5055413;28;20071;-69
2022/03/15 03:41:29;;;;;;;11.68;4.85;;;8.50;99.90;;;;;;5055049;28;20021;-69
2022/03/15 03:43:55;;;;;;;10.73;4.72;;;8.50;99.90;;;;;;5055150;28;20390;-70
2022/03/15 03:46:21;;;;;;;11.90;4.65;;;8.60;99.90;;;;;;5055192;28;20024;-70
2022/03/15 03:48:47;;;;;;;9.75;4.75;;;8.50;99.90;;;;;;5054940;28;20019;-69
2022/03/15 03:51:13;;;;;;;10.23;4.43;;;8.50;99.90;;;;;;5037025;28;20025;-69
2022/03/15 03:53:41;;;;;;;9.80;4.57;;;8.50;99.90;;;;;;5055043;28;20028;-70
2022/03/15 03:56:06;;;;;;;8.82;4.03;;;8.40;99.90;;;;;;5054701;28;20032;-69
2022/03/15 03:58:33;;;;;;;9.52;4.85;;;8.50;99.90;;;;;;5054714;28;20392;-70
2022/03/15 04:00:58;;;;;;;12.73;4.53;;;8.60;99.90;;;;;;5054911;28;20025;-70
2022/03/15 04:03:25;;;;;;;10.52;4.07;;;8.60;99.90;;;;;;5054569;28;20032;-70
2022/03/15 04:05:51;;;;;;;8.05;4.18;;;8.70;99.90;;;;;;5054333;28;20170;-70
2022/03/15 04:08:17;;;;;;;8.80;4.20;;;8.70;99.90;;;;;;5054081;28;20027;-70
2022/03/15 04:10:46;;;;;;;8.50;3.95;;;8.70;99.90;;;;;;5054704;28;20025;-69
2022/03/15 04:13:17;;;;;;;11.52;4.60;;;8.80;99.90;;;;;;5054437;28;20027;-69
2022/03/15 04:15:47;;;;;;;9.40;4.45;;;8.70;99.90;;;;;;5054728;28;20087;-69
2022/03/15 04:18:13;;;;;;;12.18;4.25;;;8.80;99.90;;;;;;5054609;28;20071;-69
2022/03/15 04:20:40;;;;;;;11.13;4.53;;;8.70;99.90;;;;;;5054860;28;20029;-70
2022/03/15 04:23:05;;;;;;;7.78;4.57;;;8.70;99.90;;;;;;5054125;28;20374;-70
2022/03/15 04:25:31;;;;;;;9.95;4.20;;;8.70;99.90;;;;;;5054210;28;20066;-69
2022/03/15 04:28:00;;;;;;;9.70;4.57;;;8.70;99.90;;;;;;5054107;28;20023;-69
2022/03/15 04:30:30;;;;;;;8.60;4.85;;;8.70;99.90;;;;;;5054340;28;20036;-69
2022/03/15 04:32:58;;;;;;;9.45;4.65;;;8.70;99.90;;;;;;5054372;28;20059;-70
2022/03/15 04:35:24;;;;;;;7.32;4.15;;;8.70;99.90;;;;;;5053999;28;20129;-70
2022/03/15 04:37:54;;;;;;;9.52;4.38;;;8.70;99.90;;;;;;5053986;28;20396;-69
2022/03/15 04:40:20;;;;;;;10.35;4.32;;;8.70;99.90;;;;;;5053919;28;20481;-71
2022/03/15 04:42:48;;;;;;;12.20;4.65;;;8.70;99.90;;;;;;5053769;28;20108;-69
2022/03/15 04:45:14;;;;;;;8.93;4.80;;;8.70;99.90;;;;;;5053829;28;20044;-69
2022/03/15 04:47:40;;;;;;;10.18;4.97;;;8.60;99.90;;;;;;5053800;28;20017;-69
2022/03/15 04:50:07;;;;;;;9.38;5.15;;;8.70;99.90;;;;;;5053819;28;20028;-69
2022/03/15 04:52:34;;;;;;;11.75;5.22;;;8.60;99.90;;;;;;5053687;28;20097;-69
2022/03/15 04:55:00;;;;;;;8.02;4.78;;;8.60;99.90;;;;;;5053862;28;20021;-70
2022/03/15 04:57:26;;;;;;;9.35;5.47;;;8.60;99.90;;;;;;5053611;28;20108;-70
2022/03/15 04:59:52;;;;;;;9.25;4.80;;;8.50;99.90;;;;;;5053853;28;20056;-70
2022/03/15 05:02:18;;;;;;;10.77;4.68;;;8.60;99.90;;;;;;5035577;28;20032;-69
2022/03/15 05:04:43;;;;;;;7.85;4.90;;;8.50;99.90;;;;;;5053755;28;20041;-70
2022/03/15 05:07:09;;;;;;;11.68;5.50;;;8.50;99.90;;;;;;5053503;28;20017;-69
2022/03/15 05:11:05;;;;;;;6.93;4.28;;;8.50;99.90;;;;;;5053688;28;20428;-69
2022/03/15 05:12:21;;;;;;;10.27;4.90;;;8.60;99.90;;;;;;5053114;28;20112;-69
2022/03/15 05:14:47;;;;;;;8.98;5.05;;;8.60;99.90;;;;;;5053369;28;20021;-70
2022/03/15 05:17:13;;;;;;;8.60;4.63;;;8.60;99.90;;;;;;5053630;28;20393;-69
2022/03/15 05:19:38;;;;;;;9.93;4.78;;;8.60;99.90;;;;;;5052824;28;20029;-70
2022/03/15 05:22:04;;;;;;;12.73;5.65;;;8.60;99.90;;;;;;5053485;28;20025;-69
2022/03/15 05:24:29;;;;;;;9.88;4.93;;;8.60;99.90;;;;;;5053287;28;20053;-69
2022/03/15 05:26:57;;;;;;;8.60;5.10;;;8.60;99.90;;;;;;5053257;28;20440;-69
2022/03/15 05:29:24;;;;;;;14.18;5.75;;;8.50;99.90;;;;;;5053181;28;20048;-70
2022/03/15 05:31:49;;;;;;;10.98;5.47;;;8.50;99.90;;;;;;5053154;28;20027;-69
2022/03/15 05:34:16;;;;;;;10.18;4.88;;;8.40;99.90;;;;;;5053111;28;20108;-69
2022/03/15 05:36:42;;;;;;;11.77;5.90;;;8.50;99.90;;;;;;5053121;28;20081;-70
2022/03/15 05:39:07;;;;;;;9.52;5.05;;;8.40;99.90;;;;;;5053049;28;20017;-69
2022/03/15 05:41:35;;;;;;;10.75;5.22;;;8.40;99.90;;;;;;5053340;28;20083;-69
2022/03/15 05:44:00;;;;;;;11.50;5.30;;;8.40;99.90;;;;;;5052965;28;20025;-69
2022/03/15 05:46:26;;;;;;;13.55;5.82;;;8.50;99.90;;;;;;5053311;28;20037;-70
2022/03/15 05:48:52;;;;;;;9.32;5.07;;;8.40;99.90;;;;;;5053002;28;20052;-70
2022/03/15 05:51:18;;;;;;;8.05;5.22;;;8.40;99.90;;;;;;5053487;28;20075;-70
2022/03/15 05:53:44;;;;;;;10.15;5.45;;;8.40;99.90;;;;;;5053000;28;20107;-70
2022/03/15 05:56:11;;;;;;;10.05;5.32;;;8.40;99.90;;;;;;5052868;28;20667;-70
2022/03/15 05:58:37;;;;;;;11.98;5.65;;;8.50;99.90;;;;;;5053450;28;20074;-69
2022/03/15 06:01:03;;;;;;;14.82;6.55;;;8.40;99.90;;;;;;5053426;28;20029;-70
2022/03/15 06:03:29;;;;;;;11.90;5.78;;;8.40;99.90;;;;;;5034620;28;20071;-69
2022/03/15 06:05:55;;;;;;;10.57;6.15;;;8.40;99.90;;;;;;5052681;28;20547;-69
2022/03/15 06:08:20;;;;;;;10.02;5.60;;;8.40;99.90;;;;;;5034857;28;20051;-70
2022/03/15 06:10:46;;;;;;;11.45;5.90;;;8.40;99.90;;;;;;5034919;28;20025;-69
2022/03/15 06:13:12;;;;;;;11.98;6.05;;;8.40;99.90;;;;;;5053051;28;20029;-70
2022/03/15 06:15:39;;;;;;;11.98;6.10;;;8.40;99.90;;;;;;5052619;28;20052;-69
2022/03/15 06:18:05;;;;;;;12.32;6.50;;;8.40;99.90;;;;;;5052768;28;20025;-69
2022/03/15 06:20:31;;;;;;;10.95;6.43;;;8.40;99.90;;;;;;5052711;28;20535;-69
2022/03/15 06:22:59;;;;;;;10.65;6.13;;;8.40;99.90;;;;;;5052637;28;20025;-70
2022/03/15 06:25:25;;;;;;;11.57;6.05;;;8.40;99.90;;;;;;5053249;28;20024;-69
2022/03/15 06:27:51;;;;;;;10.98;6.22;;;8.40;99.90;;;;;;5052913;28;20021;-70
2022/03/15 06:30:18;;;;;;;14.45;6.15;;;8.50;99.90;;;;;;5052898;28;20104;-69
2022/03/15 06:32:44;;;;;;;9.90;6.45;;;8.50;99.90;;;;;;5056345;28;20488;-69
2022/03/15 06:35:12;;;;;;;13.20;6.65;;;8.60;99.90;;;;;;5056294;28;20036;-69
2022/03/15 06:37:40;;;;;;;15.10;7.53;;;8.60;99.90;;;;;;5056529;28;20029;-69
2022/03/15 06:40:10;;;;;;;12.10;6.80;;;8.70;99.90;;;;;;5056248;28;20029;-70
2022/03/15 06:42:38;;;;;;;12.20;7.22;;;8.70;99.90;;;;;;5056371;28;20154;-70
2022/03/15 06:45:05;;;;;;;11.15;6.20;;;8.70;99.90;;;;;;5056395;28;20028;-69
2022/03/15 06:47:30;;;;;;;12.32;6.57;;;8.80;99.90;;;;;;5056084;28;20025;-69
2022/03/15 06:49:56;;;;;;;11.75;6.75;;;8.80;99.90;;;;;;5056577;28;20033;-70
2022/03/15 06:52:21;;;;;;;13.65;6.82;;;8.80;99.90;;;;;;5056035;28;20024;-70
2022/03/15 06:54:47;;;;;;;10.75;7.00;;;8.90;99.90;;;;;;5055908;28;20032;-70
2022/03/15 06:57:14;;;;;;;13.05;7.30;;;8.90;99.90;;;;;;5056172;28;20381;-70
2022/03/15 06:59:40;;;;;;;12.85;6.85;;;8.90;99.90;;;;;;5055865;28;20456;-69
2022/03/15 07:02:06;;;;;;;11.57;6.97;;;8.90;99.90;;;;;;5055732;28;20096;-70
2022/03/15 07:04:32;;;;;;;13.48;7.38;;;8.90;99.90;;;;;;5055572;28;20050;-70
2022/03/15 07:06:57;;;;;;;14.65;8.18;;;8.90;99.90;;;;;;5055979;28;20036;-70
2022/03/15 07:09:23;;;;;;;13.02;7.88;;;8.90;99.90;;;;;;5055703;28;20024;-70
2022/03/15 07:11:49;;;;;;;16.63;7.68;;;9.00;99.90;;;;;;5055878;28;20377;-70
2022/03/15 07:14:15;;;;;;;16.52;8.43;;;9.00;99.90;;;;;;5056102;28;20023;-69
2022/03/15 07:16:41;;;;;;;16.80;9.35;;;9.10;99.90;;;;;;5055523;28;20496;-69
2022/03/15 07:19:07;;;;;;;13.63;7.47;;;9.10;99.90;;;;;;5055435;28;20021;-70
2022/03/15 07:21:32;;;;;;;12.95;7.68;;;9.20;99.90;;;;;;5055447;28;20029;-69
2022/03/15 07:23:59;;;;;;;14.02;8.40;;;9.20;99.90;;;;;;5055584;28;20051;-70
2022/03/15 07:26:24;;;;;;;13.55;8.43;;;9.20;99.90;;;;;;5055629;28;20021;-71
2022/03/15 07:28:50;;;;;;;13.68;8.13;;;9.20;99.90;;;;;;5055286;28;20017;-70
2022/03/15 07:31:16;;;;;;;12.63;8.13;;;9.30;99.90;;;;;;5055253;28;20035;-70
2022/03/15 07:33:41;;;;;;;16.05;10.00;;;9.30;99.90;;;;;;5055499;28;20052;-69
2022/03/15 07:36:07;;;;;;;13.90;8.52;;;9.30;99.90;;;;;;5055160;28;20481;-71
2022/03/15 07:38:33;;;;;;;16.88;10.05;;;9.40;99.90;;;;;;5055135;28;20025;-70
2022/03/15 07:41:01;;;;;;;16.27;9.68;;;9.40;99.90;;;;;;5055064;28;20098;-70
2022/03/15 07:43:27;;;;;;;14.00;8.55;;;9.50;99.90;;;;;;5036349;28;20029;-69
2022/03/15 07:45:53;;;;;;;13.77;9.00;;;9.60;99.90;;;;;;5054982;28;20088;-69
2022/03/15 07:48:19;;;;;;;12.95;8.55;;;9.70;99.90;;;;;;5054902;28;20052;-71
2022/03/15 07:50:46;;;;;;;13.00;8.35;;;9.80;99.90;;;;;;5037000;28;20089;-70
2022/03/15 07:53:12;;;;;;;12.10;8.40;;;9.80;99.90;;;;;;5054873;28;20024;-70
2022/03/15 07:55:38;;;;;;;13.70;8.30;;;9.80;99.90;;;;;;5054116;28;20070;-74
2022/03/15 07:58:04;;;;;;;14.85;9.48;;;9.80;99.90;;;;;;5036168;28;20036;-69
2022/03/15 08:00:31;;;;;;;12.43;8.48;;;9.80;99.90;;;;;;5053879;28;20037;-70
2022/03/15 08:02:56;;;;;;;12.73;7.55;;;9.80;99.90;;;;;;5054588;28;20048;-69
2022/03/15 08:05:22;;;;;;;13.77;8.60;;;9.80;99.90;;;;;;5054462;28;20091;-70
2022/03/15 08:07:49;;;;;;;14.80;8.63;;;9.80;99.90;;;;;;5053970;28;20021;-69
2022/03/15 08:10:14;;;;;;;14.18;8.63;;;9.90;99.90;;;;;;5054488;28;20021;-69
2022/03/15 08:12:40;;;;;;;12.68;8.32;;;10.00;99.90;;;;;;5054437;28;20398;-69
2022/03/15 08:15:08;;;;;;;13.68;8.90;;;10.10;99.90;;;;;;5054422;28;20078;-69
2022/03/15 08:17:34;;;;;;;13.18;7.95;;;10.20;99.90;;;;;;5036422;28;20032;-70
2022/03/15 08:20:00;;;;;;;12.45;7.60;;;10.40;99.90;;;;;;5053288;28;20409;-69
2022/03/15 08:22:27;;;;;;;13.90;8.65;;;10.50;99.90;;;;;;5054460;28;20023;-70
2022/03/15 08:24:52;;;;;;;12.40;8.63;;;10.60;99.90;;;;;;5054281;28;20359;-73
2022/03/15 08:27:18;;;;;;;14.15;9.00;;;10.80;99.90;;;;;;5054453;28;20074;-70
2022/03/15 08:29:44;;;;;;;10.85;8.07;;;11.10;99.90;;;;;;5053831;28;20036;-72
2022/03/15 08:32:10;;;;;;;13.55;8.40;;;11.30;99.90;;;;;;5053047;28;20028;-70
2022/03/15 08:34:37;;;;;;;12.63;8.30;;;11.40;99.90;;;;;;5053589;28;20029;-69
2022/03/15 08:37:03;;;;;;;9.57;7.10;;;11.40;99.90;;;;;;5054018;28;20420;-69
2022/03/15 08:39:29;;;;;;;12.20;7.63;;;11.30;99.90;;;;;;5054510;28;20079;-69
2022/03/15 08:41:55;;;;;;;10.63;7.40;;;11.30;99.90;;;;;;5053856;28;20021;-68
2022/03/15 08:44:22;;;;;;;11.48;7.55;;;11.30;99.90;;;;;;5053928;28;20032;-69
2022/03/15 08:46:49;;;;;;;12.93;7.30;;;11.30;99.90;;;;;;5053891;28;20544;-69
2022/03/15 08:49:18;;;;;;;11.93;6.97;;;11.30;99.90;;;;;;5053002;28;20099;-68
2022/03/15 08:51:45;;;;;;;10.63;7.53;;;11.40;99.90;;;;;;5053797;28;20041;-71
2022/03/15 08:54:11;;;;;;;11.27;7.20;;;11.50;99.90;;;;;;5053881;28;20025;-71
2022/03/15 08:56:41;;;;;;;8.98;6.13;;;11.60;99.90;;;;;;5053130;28;20115;-71
2022/03/15 08:59:15;;;;;;;9.68;6.30;;;11.70;99.90;;;;;;5053302;28;20078;-69
2022/03/15 09:01:42;;;;;;;10.15;6.47;;;12.00;99.90;;;;;;5053632;28;20036;-70
2022/03/15 09:04:08;;;;;;;10.50;6.07;;;12.20;99.90;;;;;;5052940;28;20016;-70
2022/03/15 09:06:34;;;;;;;12.00;6.85;;;12.40;99.90;;;;;;5053103;28;20045;-69
2022/03/15 09:09:00;;;;;;;8.38;5.80;;;12.50;99.90;;;;;;5053483;28;20021;-69
2022/03/15 09:11:30;;;;;;;8.23;5.88;;;12.60;99.90;;;;;;5053407;28;20025;-70
2022/03/15 09:13:57;;;;;;;9.40;5.85;;;12.70;99.90;;;;;;5035084;28;20120;-71
2022/03/15 09:16:22;;;;;;;9.02;5.95;;;12.80;99.90;;;;;;5053996;28;20115;-72
2022/03/15 09:18:48;;;;;;;8.38;5.88;;;13.00;99.90;;;;;;5053540;28;20457;-71
2022/03/15 09:21:14;;;;;;;10.43;6.25;;;13.30;99.90;;;;;;5053972;28;20382;-72
2022/03/15 09:23:40;;;;;;;7.82;5.45;;;13.60;99.90;;;;;;5053215;28;20040;-71
2022/03/15 09:26:06;;;;;;;9.77;5.95;;;14.10;99.90;;;;;;5053395;28;20021;-71
2022/03/15 09:28:33;;;;;;;9.88;6.10;;;14.60;99.90;;;;;;5053122;28;20025;-72
2022/03/15 09:31:00;;;;;;;7.97;5.53;;;14.70;99.90;;;;;;5053086;28;20473;-72
2022/03/15 09:33:26;;;;;;;8.55;5.70;;;14.70;99.90;;;;;;5053065;28;20029;-72
2022/03/15 09:35:51;;;;;;;8.32;5.60;;;14.80;99.90;;;;;;5052726;28;20024;-70
2022/03/15 09:38:19;;;;;;;8.52;5.53;;;15.00;99.90;;;;;;5053048;28;20028;-70
2022/03/15 09:40:49;;;;;;;8.57;5.53;;;15.00;99.90;;;;;;5053071;28;20025;-71
2022/03/15 09:43:15;;;;;;;;;;;15.20;99.90;;;;;;5053429;28;20178;-70
2022/03/15 09:45:42;;;;;;;8.18;4.95;;;15.30;99.90;;;;;;5029354;28;19919;-71
2022/03/15 09:48:15;;;;;;;8.00;5.35;;;15.80;99.90;;;;;;5033652;28;20026;-72
2022/03/15 09:50:42;;;;;;;7.25;4.97;;;16.10;99.90;;;;;;5043428;28;20044;-71
2022/03/15 09:53:09;;;;;;;6.50;4.55;;;17.00;99.90;;;;;;5052600;28;20032;-72
2022/03/15 09:55:35;;;;;;;7.38;4.72;;;;;;;;;;5051837;28;20040;-68
2022/03/15 09:58:01;;;;;;;8.38;5.03;;;;;;;;;;5051620;28;20032;-68
2022/03/15 10:00:29;;;;;;;6.88;4.75;;;;;;;;;;5052216;28;20033;-68
2022/03/15 10:02:55;;;;;;;7.65;4.97;;;;;;;;;;5052376;28;20021;-69
2022/03/15 10:05:21;;;;;;;7.43;5.22;;;;;;;;;;5052231;28;20064;-68
2022/03/15 10:07:47;;;;;;;6.93;4.97;;;;;;;;;;5056483;28;20037;-70
2022/03/15 10:10:15;;;;;;;6.95;5.00;;;;;;;;;;5056446;28;20409;-69
2022/03/15 10:12:41;;;;;;;6.53;4.80;;;;;;;;;;5038526;28;20040;-69
2022/03/15 10:15:14;;;;;;;6.95;4.85;;;;;;;;;;5056737;28;20028;-69
2022/03/15 10:17:43;;;;;;;7.53;5.78;;;;;;;;;;5056363;28;20024;-69
2022/03/15 10:20:09;;;;;;;8.90;5.75;;;;;;;;;;5057172;28;20033;-68
2022/03/15 10:22:35;;;;;;;7.43;5.50;;;;;;;;;;5056506;28;20385;-70
2022/03/15 10:25:01;;;;;;;8.27;6.13;;;;;;;;;;5056283;28;20033;-70
2022/03/15 10:27:28;;;;;;;9.02;5.57;;;;;;;;;;5055690;28;20013;-70
2022/03/15 10:29:54;;;;;;;7.90;5.50;;;;;;;;;;5056420;28;20039;-71
2022/03/15 10:32:21;;;;;;;8.50;6.50;;;;;;;;;;5056319;28;20036;-72
2022/03/15 10:34:47;;;;;;;8.70;5.40;;;;;;;;;;5056211;28;20037;-73
2022/03/15 10:37:13;;;;;;;11.20;5.85;;;;;;;;;;5056265;28;20029;-69
2022/03/15 10:39:39;;;;;;;7.93;5.72;;;;;;;;;;5055610;28;20393;-74
2022/03/15 10:42:08;;;;;;;8.93;5.78;;;;;;;;;;5055754;28;20021;-73
2022/03/15 10:44:38;;;;;;;9.48;6.00;;;;;;;;;;5056199;28;20027;-74
2022/03/15 10:47:07;;;;;;;10.02;6.35;;;;;;;;;;5056753;28;20017;-73
2022/03/15 10:49:46;;;;;;;10.88;6.72;;;;;;;;;;5056300;28;20071;-71
2022/03/15 10:52:12;;;;;;;8.93;6.32;;;;;;;;;;5055803;28;20428;-70
2022/03/15 10:54:39;;;;;;;10.55;7.88;;;;;;;;;;5055412;28;20021;-69
2022/03/15 10:57:05;;;;;;;11.82;6.93;;;;;;;;;;5055918;28;20018;-68
2022/03/15 10:59:31;;;;;;;10.43;6.90;;;;;;;;;;5056133;28;20094;-71
2022/03/15 11:01:57;;;;;;;8.63;6.20;;;;;;;;;;5055417;28;20052;-72
2022/03/15 11:04:23;;;;;;;10.50;6.35;;;;;;;;;;5055316;28;20029;-70
2022/03/15 11:06:51;;;;;;;8.32;5.88;;;;;;;;;;5055073;28;20032;-70
2022/03/15 11:09:27;;;;;;;16.85;12.02;;;;;;;;;;5055072;28;20119;-68
2022/03/15 11:11:54;;;;;;;11.00;7.47;;;;;;;;;;5055632;28;20021;-70
2022/03/15 11:14:45;;;;;;;13.27;9.30;;;;;;;;;;5054879;28;20035;-71
2022/03/15 11:17:15;;;;;;;11.93;8.77;;;;;;;;;;5054021;28;20031;-69
2022/03/15 11:19:41;;;;;;;;;;;;;;;;;;5055381;28;20122;-70
2022/03/15 11:22:07;;;;;;;17.08;12.40;;;;;;;;;;5055084;28;19905;-70
2022/03/15 11:24:39;;;;;;;10.07;6.60;;;;;;;;;;5054195;28;20025;-73
2022/03/15 11:27:07;;;;;;;11.25;5.88;;;;;;;;;;5024236;28;20131;-71
2022/03/15 11:29:34;;;;;;;9.43;6.03;;;;;;;;;;5035670;28;20022;-71
2022/03/15 11:32:01;;;;;;;10.43;6.47;;;;;;;;;;5054313;28;20029;-76
2022/03/15 11:34:27;;;;;;;9.25;6.15;;;;;;;;;;5055467;28;20047;-71
2022/03/15 11:36:54;;;;;;;10.27;6.75;;;;;;;;;;5055161;28;20545;-72
2022/03/15 11:39:20;;;;;;;10.32;6.43;;;;;;;;;;5055161;28;20021;-71
2022/03/15 11:41:46;;;;;;;8.80;5.93;;;;;;;;;;5055079;28;20090;-74
2022/03/15 11:44:45;;;;;;;10.48;5.45;;;;;;;;;;5055275;28;20025;-73
2022/03/15 11:47:14;;;;;;;8.45;6.45;;;;;;;;;;5032434;28;20083;-73
2022/03/15 11:49:47;;;;;;;10.50;6.25;;;;;;;;;;5055231;28;20017;-73
2022/03/15 11:52:31;;;;;;;9.77;7.10;;;;;;;;;;5055183;28;20104;-71
2022/03/15 11:55:04;;;;;;;8.70;6.50;;;;;;;;;;5054961;28;20025;-74
2022/03/15 11:57:30;;;;;;;9.10;6.38;;;;;;;;;;5054749;28;20025;-72
2022/03/15 11:59:57;;;;;;;9.43;7.10;;;;;;;;;;5054740;28;20059;-75
2022/03/15 12:02:32;;;;;;;12.02;7.07;;;;;;;;;;5054646;28;20025;-74
2022/03/15 12:04:59;;;;;;;11.68;7.32;;;;;;;;;;5054482;28;20068;-72
2022/03/15 12:07:36;;;;;;;8.65;6.90;;;;;;;;;;5054634;28;20021;-73
2022/03/15 12:10:07;;;;;;;11.15;7.70;;;;;;;;;;5055190;28;20044;-73
2022/03/15 12:12:33;;;;;;;10.40;7.00;;;;;;;;;;5055177;28;20108;-73
2022/03/15 12:15:12;;;;;;;10.70;7.35;;;;;;;;;;5054788;28;20025;-73
2022/03/15 12:17:41;;;;;;;10.60;6.90;;;;;;;;;;5054772;28;20032;-74
2022/03/15 12:20:16;;;;;;;9.73;7.22;;;;;;;;;;5054882;28;20082;-74
2022/03/15 12:22:43;;;;;;;10.30;7.32;;;;;;;;;;5036090;28;20390;-74
2022/03/15 12:25:18;;;;;;;10.25;6.75;;;;;;;;;;5054224;28;20078;-72
2022/03/15 12:27:50;;;;;;;9.88;6.30;;;;;;;;;;5054179;28;20385;-73
2022/03/15 12:30:29;;;;;;;9.25;6.40;;;;;;;;;;5053896;28;20052;-74
2022/03/15 12:32:55;;;;;;;11.02;6.80;;;;;;;;;;5054386;28;20393;-76
2022/03/15 12:35:28;;;;;;;10.18;6.35;;;;;;;;;;5054013;28;20032;-72
2022/03/15 12:38:04;;;;;;;15.77;7.22;;;;;;;;;;5053961;28;20481;-73
2022/03/15 12:40:30;;;;;;;10.02;6.38;;;;;;;;;;5053956;28;20050;-73
2022/03/15 12:43:01;;;;;;;13.73;6.70;;;;;;;;;;5053799;28;20037;-73
2022/03/15 12:45:28;;;;;;;9.13;6.22;;;;;;;;;;5053894;28;20013;-73
2022/03/15 12:48:02;;;;;;;9.05;6.03;;;;;;;;;;5035961;28;20025;-73
2022/03/15 12:50:31;;;;;;;10.93;5.28;;;;;;;;;;5053795;28;20104;-72
2022/03/15 12:53:17;;;;;;;8.10;5.38;;;;;;;;;;5054305;28;20025;-73
2022/03/15 12:55:43;;;;;;;9.10;5.78;;;;;;;;;;5053909;28;20024;-72
2022/03/15 12:58:10;;;;;;;10.82;5.05;;;;;;;;;;5053641;28;20028;-73
2022/03/15 13:00:43;;;;;;;14.75;5.80;;;;;;;;;;5035734;28;20063;-73
2022/03/15 13:03:11;;;;;;;9.38;5.00;;;;;;;;;;5053814;28;20093;-72
2022/03/15 13:05:42;;;;;;;9.07;4.90;;;;;;;;;;5053358;28;20041;-73
2022/03/15 13:08:09;;;;;;;10.77;5.13;;;;;;;;;;5053784;28;20029;-74
2022/03/15 13:10:38;;;;;;;9.10;5.22;;;;;;;;;;5053443;28;20024;-74
2022/03/15 13:13:08;;;;;;;9.60;5.87;;;;;;;;;;5053441;28;20029;-74